Time;durP1;ratioP1;P1;durP2;ratioP2;P2;SDS_P1;SDS_P2;PMS_P1;PMS_P2;Temp;Humidity;BMP_temperature;BMP_pressure;BME280_temperature;BME280_humidity;BME280_pressure;Samples;Min_cycle;Max_cycle;Signal;HPM_P1;HPM_P2
2021/03/26 00:00:39;;;;;;;18.45;16.50;;;8.00;99.50;;;;;;4929493;29;20213;-66
2021/03/26 00:03:08;;;;;;;22.63;17.55;;;8.00;99.60;;;;;;4930011;29;20261;-68
2021/03/26 00:05:36;;;;;;;23.08;17.23;;;8.00;99.50;;;;;;4942250;29;20212;-67
2021/03/26 00:08:03;;;;;;;24.98;19.52;;;8.00;99.60;;;;;;4948382;29;20584;-68
2021/03/26 00:10:29;;;;;;;20.45;18.20;;;8.00;99.80;;;;;;4948482;29;20280;-68
2021/03/26 00:12:56;;;;;;;21.60;17.90;;;8.00;99.90;;;;;;4948846;28;20292;-68
2021/03/26 00:15:22;;;;;;;22.48;17.88;;;8.00;99.90;;;;;;4948185;28;20217;-70
2021/03/26 00:17:49;;;;;;;21.23;19.02;;;8.00;99.90;;;;;;4948466;28;20702;-69
2021/03/26 00:20:16;;;;;;;23.02;17.92;;;8.10;99.90;;;;;;4948412;29;20219;-67
2021/03/26 00:22:43;;;;;;;20.00;17.15;;;8.10;99.90;;;;;;4948239;29;20233;-68
2021/03/26 00:25:11;;;;;;;22.40;17.65;;;8.10;99.90;;;;;;4948583;29;20208;-67
2021/03/26 00:27:37;;;;;;;20.98;17.92;;;8.10;99.90;;;;;;4947977;29;20292;-69
2021/03/26 00:30:05;;;;;;;19.50;17.20;;;8.10;99.90;;;;;;4948003;28;20777;-69
2021/03/26 00:32:32;;;;;;;26.00;16.67;;;8.10;99.90;;;;;;4948019;29;20762;-67
2021/03/26 00:34:58;;;;;;;22.90;17.30;;;8.10;99.90;;;;;;4949361;29;20482;-67
2021/03/26 00:37:25;;;;;;;18.95;15.20;;;8.10;99.90;;;;;;4948115;29;20296;-68
2021/03/26 00:39:51;;;;;;;20.52;17.23;;;8.10;99.90;;;;;;4947955;29;20220;-66
2021/03/26 00:42:19;;;;;;;20.85;18.58;;;8.00;99.90;;;;;;4948371;29;20201;-67
2021/03/26 00:44:45;;;;;;;18.38;16.45;;;7.90;99.90;;;;;;4948160;29;20209;-69
2021/03/26 00:47:12;;;;;;;20.67;17.70;;;7.80;99.90;;;;;;4948445;29;20201;-67
2021/03/26 00:49:38;;;;;;;20.52;17.13;;;7.70;99.90;;;;;;4947490;28;20260;-68
2021/03/26 00:52:06;;;;;;;22.02;17.20;;;7.60;99.90;;;;;;4948209;29;20686;-68
2021/03/26 00:54:34;;;;;;;21.33;19.02;;;7.50;99.90;;;;;;4948562;28;20299;-67
2021/03/26 00:57:00;;;;;;;23.10;19.27;;;7.50;99.90;;;;;;4948298;29;20292;-68
2021/03/26 00:59:27;;;;;;;22.15;18.40;;;7.50;99.90;;;;;;4947553;29;20675;-68
2021/03/26 01:01:53;;;;;;;21.95;19.65;;;7.50;99.90;;;;;;4947712;28;20259;-66
2021/03/26 01:04:20;;;;;;;22.77;16.67;;;7.40;99.90;;;;;;4929025;28;20709;-67
2021/03/26 01:06:46;;;;;;;22.17;19.10;;;7.50;99.90;;;;;;4929115;29;20205;-68
2021/03/26 01:09:13;;;;;;;21.27;18.63;;;7.50;99.90;;;;;;4928893;29;20306;-67
2021/03/26 01:11:41;;;;;;;24.45;17.65;;;7.40;99.90;;;;;;4947483;29;20300;-68
2021/03/26 01:14:11;;;;;;;31.55;19.92;;;7.40;99.90;;;;;;4948109;28;20611;-67
2021/03/26 01:16:38;;;;;;;22.08;19.73;;;7.40;99.90;;;;;;4947921;28;20713;-67
2021/03/26 01:19:06;;;;;;;27.17;20.02;;;7.40;99.90;;;;;;4950756;28;20557;-68
2021/03/26 01:21:34;;;;;;;24.17;18.30;;;7.30;99.90;;;;;;4951304;29;20211;-68
2021/03/26 01:24:02;;;;;;;25.45;19.98;;;7.40;99.90;;;;;;4951596;29;20237;-69
2021/03/26 01:26:29;;;;;;;20.80;18.60;;;7.30;99.90;;;;;;4951527;29;20575;-68
2021/03/26 01:28:56;;;;;;;21.92;19.60;;;7.20;99.90;;;;;;4950797;29;20212;-67
2021/03/26 01:31:24;;;;;;;22.77;19.42;;;7.30;99.90;;;;;;4950718;29;20212;-68
2021/03/26 01:33:50;;;;;;;22.85;19.27;;;7.30;99.90;;;;;;4951452;29;20209;-67
2021/03/26 01:36:17;;;;;;;21.90;19.27;;;7.30;99.90;;;;;;4950877;29;20268;-68
2021/03/26 01:38:44;;;;;;;24.63;19.83;;;7.30;99.90;;;;;;4950182;29;20211;-68
2021/03/26 01:41:16;;;;;;;26.08;18.65;;;7.40;99.90;;;;;;4951066;29;20212;-67
2021/03/26 01:43:43;;;;;;;23.85;18.73;;;7.40;99.90;;;;;;4950664;29;20240;-66
2021/03/26 01:46:13;;;;;;;21.92;18.02;;;7.30;99.90;;;;;;4931351;29;20216;-67
2021/03/26 01:48:43;;;;;;;20.52;17.80;;;7.30;99.90;;;;;;4931486;29;20248;-68
2021/03/26 01:51:12;;;;;;;24.45;18.00;;;7.20;99.90;;;;;;4931977;29;20216;-67
2021/03/26 01:53:39;;;;;;;22.65;17.73;;;7.10;99.90;;;;;;4931656;29;20304;-67
2021/03/26 01:56:06;;;;;;;20.58;18.30;;;7.10;99.90;;;;;;4932300;29;20206;-67
2021/03/26 01:58:34;;;;;;;23.42;18.95;;;7.10;99.90;;;;;;4932286;29;20264;-67
2021/03/26 02:01:04;;;;;;;27.48;19.23;;;7.10;99.90;;;;;;4950867;29;20216;-68
2021/03/26 02:03:34;;;;;;;22.90;20.40;;;7.10;99.90;;;;;;4950741;29;21008;-68
2021/03/26 02:06:07;;;;;;;24.33;18.38;;;7.00;99.90;;;;;;4951056;29;20259;-66
2021/03/26 02:08:36;;;;;;;31.63;21.80;;;7.00;99.90;;;;;;4950029;29;20205;-67
2021/03/26 02:11:07;;;;;;;24.25;19.23;;;7.00;99.90;;;;;;4950298;29;20675;-67
2021/03/26 02:13:36;;;;;;;21.17;18.50;;;7.00;99.90;;;;;;4950072;28;20204;-67
2021/03/26 02:16:05;;;;;;;22.85;18.67;;;7.00;99.90;;;;;;4949844;29;20838;-68
2021/03/26 02:18:36;;;;;;;23.05;18.42;;;6.90;99.90;;;;;;4949903;29;20209;-68
2021/03/26 02:21:06;;;;;;;21.67;19.08;;;6.80;99.90;;;;;;4950030;29;20209;-67
2021/03/26 02:23:35;;;;;;;26.55;20.83;;;6.80;99.90;;;;;;4950070;29;20714;-68
2021/03/26 02:26:04;;;;;;;24.73;20.70;;;6.80;99.90;;;;;;4949858;29;20729;-68
2021/03/26 02:28:30;;;;;;;22.58;19.35;;;6.80;99.90;;;;;;4948833;28;20806;-67
2021/03/26 02:30:59;;;;;;;21.70;18.88;;;6.70;99.90;;;;;;4950054;29;20257;-68
2021/03/26 02:33:27;;;;;;;22.98;18.50;;;6.70;99.90;;;;;;4949811;29;20296;-66
2021/03/26 02:36:31;;;;;;;22.85;18.80;;;6.70;99.90;;;;;;4950482;29;20292;-68
2021/03/26 02:39:01;;;;;;;22.77;18.55;;;6.70;99.90;;;;;;4949218;28;20248;-68
2021/03/26 02:41:31;;;;;;;21.08;18.23;;;6.70;99.90;;;;;;4949784;29;20221;-67
2021/03/26 02:44:05;;;;;;;22.08;18.52;;;6.70;99.90;;;;;;4950129;29;20233;-67
2021/03/26 02:46:36;;;;;;;22.50;18.75;;;6.80;99.90;;;;;;4949705;29;20205;-68
2021/03/26 02:49:10;;;;;;;22.15;18.45;;;6.70;99.90;;;;;;4949568;29;20209;-68
2021/03/26 02:51:42;;;;;;;21.30;16.42;;;6.60;99.90;;;;;;4949764;28;20621;-68
2021/03/26 02:54:18;;;;;;;27.42;19.48;;;6.50;99.90;;;;;;4949677;29;20267;-68
2021/03/26 02:56:48;;;;;;;24.27;18.30;;;6.50;99.90;;;;;;4949675;29;20242;-67
2021/03/26 02:59:19;;;;;;;25.50;19.40;;;6.60;99.90;;;;;;4949291;29;20252;-68
2021/03/26 03:01:49;;;;;;;23.65;18.60;;;6.50;99.90;;;;;;4946957;29;20218;-67
2021/03/26 03:04:18;;;;;;;21.85;19.42;;;6.50;99.90;;;;;;4949133;28;20243;-68
2021/03/26 03:06:51;;;;;;;28.25;20.80;;;6.60;99.90;;;;;;4949462;29;20204;-67
2021/03/26 03:09:21;;;;;;;25.65;21.70;;;6.50;99.90;;;;;;4948660;29;20220;-67
2021/03/26 03:11:51;;;;;;;23.38;19.70;;;6.50;99.90;;;;;;4949381;29;20303;-66
2021/03/26 03:14:22;;;;;;;22.15;19.70;;;6.50;99.90;;;;;;4948987;29;20648;-66
2021/03/26 03:17:00;;;;;;;25.50;20.80;;;6.30;99.90;;;;;;4949603;29;20201;-68
2021/03/26 03:19:36;;;;;;;24.20;19.92;;;6.30;99.90;;;;;;4948641;28;20687;-66
2021/03/26 03:22:06;;;;;;;25.10;19.95;;;6.20;99.90;;;;;;4949234;29;20205;-68
2021/03/26 03:24:37;;;;;;;24.77;19.40;;;6.20;99.90;;;;;;4947639;29;20239;-68
2021/03/26 03:27:18;;;;;;;21.48;18.95;;;6.30;99.90;;;;;;4949636;28;20193;-66
2021/03/26 03:29:50;;;;;;;23.80;19.58;;;6.30;99.90;;;;;;4948471;28;20287;-67
2021/03/26 03:32:25;;;;;;;26.45;19.45;;;6.30;99.90;;;;;;4949085;29;20204;-68
2021/03/26 03:34:59;;;;;;;25.80;20.10;;;6.20;99.90;;;;;;4941120;29;20579;-66
2021/03/26 03:37:33;;;;;;;27.92;20.30;;;6.20;99.90;;;;;;4941089;29;20208;-67
2021/03/26 03:40:07;;;;;;;25.33;20.38;;;6.10;99.90;;;;;;4931408;29;20581;-69
2021/03/26 03:42:43;;;;;;;24.95;21.15;;;5.90;99.90;;;;;;4948750;29;20205;-67
2021/03/26 03:45:16;;;;;;;28.15;21.67;;;5.70;99.90;;;;;;4948994;29;20205;-68
2021/03/26 03:47:49;;;;;;;23.40;19.92;;;5.70;99.90;;;;;;4948783;28;20220;-67
2021/03/26 03:50:22;;;;;;;28.75;21.77;;;5.70;99.90;;;;;;4947809;29;20655;-68
2021/03/26 03:52:55;;;;;;;25.50;21.83;;;5.60;99.90;;;;;;4941507;29;20206;-67
2021/03/26 03:55:28;;;;;;;26.58;21.90;;;5.40;99.90;;;;;;4929491;29;20284;-67
2021/03/26 03:58:03;;;;;;;29.98;21.02;;;5.40;99.90;;;;;;4930222;29;20281;-69
2021/03/26 04:00:33;;;;;;;28.48;21.90;;;5.40;99.90;;;;;;4928399;29;20661;-66
2021/03/26 04:03:08;;;;;;;28.05;22.50;;;5.40;99.90;;;;;;4936695;29;20224;-68
2021/03/26 04:05:37;;;;;;;29.30;23.35;;;5.50;99.90;;;;;;4948310;29;20247;-67
2021/03/26 04:08:09;;;;;;;26.08;21.50;;;5.60;99.90;;;;;;4949217;28;20300;-66
2021/03/26 04:10:38;;;;;;;28.88;21.60;;;5.70;99.90;;;;;;4948420;29;20283;-68
2021/03/26 04:13:09;;;;;;;26.17;21.40;;;5.70;99.90;;;;;;4948314;29;20628;-68
2021/03/26 04:15:40;;;;;;;25.88;21.25;;;5.70;99.90;;;;;;4948781;29;20205;-67
2021/03/26 04:18:12;;;;;;;27.58;21.55;;;5.70;99.90;;;;;;4947883;29;20201;-68
2021/03/26 04:20:43;;;;;;;25.88;21.67;;;5.70;99.90;;;;;;4948479;29;20291;-66
2021/03/26 04:23:16;;;;;;;28.55;21.02;;;5.60;99.90;;;;;;4948558;29;20228;-69
2021/03/26 04:25:55;;;;;;;25.75;20.90;;;5.60;99.90;;;;;;4948371;29;20205;-66
2021/03/26 04:28:30;;;;;;;26.75;23.27;;;5.50;99.90;;;;;;4947667;29;20575;-68
2021/03/26 04:31:01;;;;;;;29.65;21.27;;;5.60;99.90;;;;;;4948133;29;20231;-68
2021/03/26 04:33:28;;;;;;;29.48;23.00;;;5.50;99.90;;;;;;4948613;29;20639;-67
2021/03/26 04:35:56;;;;;;;29.52;22.40;;;5.50;99.90;;;;;;4948061;29;20300;-68
2021/03/26 04:38:26;;;;;;;31.10;22.33;;;5.40;99.90;;;;;;4947474;29;20220;-67
2021/03/26 04:40:59;;;;;;;30.73;23.92;;;5.40;99.90;;;;;;4947741;29;20217;-66
2021/03/26 04:43:31;;;;;;;29.30;21.95;;;5.30;99.90;;;;;;4948648;29;20231;-66
2021/03/26 04:46:04;;;;;;;29.35;22.52;;;5.30;99.90;;;;;;4948006;29;20219;-68
2021/03/26 04:48:35;;;;;;;32.80;25.33;;;5.30;99.90;;;;;;4947016;29;20263;-67
2021/03/26 04:51:09;;;;;;;30.95;24.33;;;5.20;99.90;;;;;;4949565;28;20709;-67
2021/03/26 04:53:41;;;;;;;32.28;24.90;;;5.20;99.90;;;;;;4951765;29;20216;-67
2021/03/26 04:56:13;;;;;;;31.42;23.40;;;5.10;99.90;;;;;;4952572;29;20565;-66
2021/03/26 04:58:42;;;;;;;32.20;23.45;;;5.00;99.90;;;;;;4951136;29;20205;-68
2021/03/26 05:01:13;;;;;;;30.98;23.20;;;4.90;99.90;;;;;;4951319;29;20201;-67
2021/03/26 05:03:44;;;;;;;30.88;22.63;;;4.90;99.90;;;;;;4951213;29;20232;-68
2021/03/26 05:06:15;;;;;;;31.85;23.63;;;5.00;99.90;;;;;;4951934;29;20311;-67
2021/03/26 05:08:44;;;;;;;28.40;21.27;;;4.90;99.90;;;;;;4951014;29;20888;-66
2021/03/26 05:11:14;;;;;;;30.52;23.05;;;5.00;99.90;;;;;;4951434;29;20205;-66
2021/03/26 05:13:46;;;;;;;37.20;25.27;;;5.10;99.90;;;;;;4951648;29;20209;-66
2021/03/26 05:16:27;;;;;;;33.38;24.67;;;5.10;99.90;;;;;;4951945;29;20216;-68
2021/03/26 05:18:59;;;;;;;32.25;25.75;;;5.20;99.90;;;;;;4950350;29;20228;-67
2021/03/26 05:21:33;;;;;;;33.88;24.85;;;5.20;99.90;;;;;;4949822;29;20207;-67
2021/03/26 05:24:03;;;;;;;29.17;23.55;;;5.30;99.90;;;;;;4951601;29;20842;-67
2021/03/26 05:26:34;;;;;;;31.50;24.05;;;5.40;99.90;;;;;;4951130;29;20827;-69
2021/03/26 05:29:00;;;;;;;29.75;23.23;;;5.40;99.90;;;;;;4950931;29;20209;-68
2021/03/26 05:31:39;;;;;;;33.28;24.70;;;5.40;99.90;;;;;;4951385;28;20213;-67
2021/03/26 05:34:11;;;;;;;27.20;23.17;;;5.40;99.90;;;;;;4951506;29;20219;-66
2021/03/26 05:36:41;;;;;;;33.80;23.65;;;5.40;99.90;;;;;;4951367;29;20213;-67
2021/03/26 05:39:12;;;;;;;26.88;22.65;;;5.50;99.90;;;;;;4950136;28;20308;-66
2021/03/26 05:42:01;;;;;;;29.70;24.00;;;5.50;99.90;;;;;;4951312;29;20300;-67
2021/03/26 05:44:43;;;;;;;32.50;23.67;;;5.50;99.90;;;;;;4951429;29;20237;-67
2021/03/26 05:47:31;;;;;;;31.05;24.55;;;5.50;99.90;;;;;;4951426;29;20193;-68
2021/03/26 05:50:11;;;;;;;31.52;24.95;;;5.50;99.90;;;;;;4949876;29;20232;-66
2021/03/26 05:52:56;;;;;;;33.25;24.40;;;5.50;99.90;;;;;;4950977;28;20213;-69
2021/03/26 05:55:37;;;;;;;34.33;24.27;;;5.60;99.90;;;;;;4942080;28;20213;-68
2021/03/26 05:58:18;;;;;;;26.98;21.88;;;5.60;99.90;;;;;;4950136;29;20212;-68
2021/03/26 06:01:04;;;;;;;31.30;24.23;;;5.70;99.90;;;;;;4937002;28;20839;-67
2021/03/26 06:03:57;;;;;;;27.10;23.52;;;5.80;99.90;;;;;;4937280;28;20692;-66
2021/03/26 06:06:44;;;;;;;32.70;22.73;;;5.80;99.90;;;;;;4931050;29;20217;-68
2021/03/26 06:09:31;;;;;;;28.27;24.00;;;6.00;99.90;;;;;;4930716;29;20206;-68
2021/03/26 06:12:14;;;;;;;30.88;23.83;;;6.10;99.90;;;;;;4931094;29;20655;-68
2021/03/26 06:15:08;;;;;;;30.10;22.15;;;6.10;99.90;;;;;;4931444;29;20236;-69
2021/03/26 06:18:16;;;;;;;25.05;20.80;;;6.20;99.90;;;;;;4930984;29;20791;-68
2021/03/26 06:21:10;;;;;;;29.35;21.88;;;6.40;99.90;;;;;;4902500;29;20300;-69
2021/03/26 06:24:07;;;;;;;26.23;22.10;;;6.50;99.90;;;;;;4930879;29;20237;-67
2021/03/26 06:26:47;;;;;;;28.00;21.13;;;6.60;99.90;;;;;;4898011;29;20213;-69
2021/03/26 06:29:25;;;;;;;27.08;21.00;;;6.80;99.90;;;;;;4933508;29;20574;-69
2021/03/26 06:32:28;;;;;;;25.95;21.55;;;6.80;99.90;;;;;;4950254;29;20300;-68
2021/03/26 06:35:22;;;;;;;24.50;21.08;;;7.10;99.90;;;;;;4949868;29;20284;-68
2021/03/26 06:38:13;;;;;;;24.83;20.90;;;7.40;99.90;;;;;;4949721;29;20651;-73
2021/03/26 06:40:52;;;;;;;25.17;21.75;;;7.90;99.90;;;;;;4941477;28;20243;-68
2021/03/26 06:43:49;;;;;;;23.42;20.25;;;8.40;99.90;;;;;;4949749;28;20315;-69
2021/03/26 06:46:28;;;;;;;21.35;18.58;;;8.70;99.90;;;;;;4923604;29;20268;-68
2021/03/26 06:49:04;;;;;;;25.95;21.65;;;8.60;99.90;;;;;;4950511;28;20264;-68
2021/03/26 06:51:55;;;;;;;23.27;19.40;;;8.70;99.90;;;;;;4952035;28;20197;-68
2021/03/26 06:54:53;;;;;;;23.45;19.33;;;9.10;99.90;;;;;;4946884;28;20209;-69
2021/03/26 06:57:48;;;;;;;24.98;20.27;;;9.30;99.90;;;;;;4936919;28;20208;-68
2021/03/26 07:01:00;;;;;;;22.17;18.63;;;9.70;99.70;;;;;;4955576;28;20295;-68
2021/03/26 07:04:02;;;;;;;22.02;18.45;;;9.90;99.60;;;;;;4946290;28;20331;-68
2021/03/26 07:07:02;;;;;;;25.02;18.38;;;10.10;98.70;;;;;;4923159;28;20208;-68
2021/03/26 07:09:45;;;;;;;20.58;17.17;;;10.60;97.70;;;;;;4938531;29;20211;-67
2021/03/26 07:12:26;;;;;;;20.58;15.95;;;11.20;96.00;;;;;;4951372;28;20220;-71
2021/03/26 07:15:01;;;;;;;20.05;16.67;;;11.30;95.20;;;;;;4960889;28;20211;-70
2021/03/26 07:18:04;;;;;;;18.60;16.63;;;11.40;95.60;;;;;;4956083;28;20604;-68
2021/03/26 07:21:08;;;;;;;23.17;17.85;;;11.90;94.40;;;;;;4962474;28;20250;-68
2021/03/26 07:24:18;;;;;;;19.15;17.05;;;11.60;94.20;;;;;;4948435;28;20849;-68
2021/03/26 07:27:08;;;;;;;21.13;16.90;;;12.00;94.10;;;;;;4956855;28;20280;-68
2021/03/26 07:30:03;;;;;;;19.17;17.08;;;13.00;92.80;;;;;;4944838;28;20679;-69
2021/03/26 07:32:49;;;;;;;27.38;18.35;;;13.40;91.70;;;;;;4959628;28;20360;-68
2021/03/26 07:35:36;;;;;;;22.25;19.73;;;13.80;91.80;;;;;;4950534;28;20246;-70
2021/03/26 07:38:27;;;;;;;22.67;18.27;;;14.30;90.50;;;;;;4953689;28;20201;-70
2021/03/26 07:41:05;;;;;;;22.42;19.42;;;15.20;86.50;;;;;;4955701;28;20244;-69
2021/03/26 07:43:43;;;;;;;21.58;19.33;;;14.90;85.30;;;;;;4948914;28;20244;-70
2021/03/26 07:46:45;;;;;;;23.88;20.15;;;14.50;85.40;;;;;;4950738;28;20725;-68
2021/03/26 07:49:32;;;;;;;21.20;18.20;;;13.90;87.10;;;;;;4936887;28;20213;-68
2021/03/26 07:52:05;;;;;;;22.67;20.15;;;13.30;88.60;;;;;;4955875;28;20726;-68
2021/03/26 07:54:44;;;;;;;20.70;18.50;;;13.10;89.80;;;;;;4954469;28;20201;-70
2021/03/26 07:57:44;;;;;;;41.28;20.00;;;12.80;90.00;;;;;;4950592;28;20201;-69
2021/03/26 08:00:24;;;;;;;22.35;18.73;;;12.40;90.60;;;;;;4938920;28;20256;-69
2021/03/26 08:03:12;;;;;;;24.55;17.95;;;12.20;90.90;;;;;;4947590;28;20204;-68
2021/03/26 08:05:46;;;;;;;24.80;18.40;;;11.60;91.90;;;;;;4957809;28;20204;-68
2021/03/26 08:08:38;;;;;;;22.95;18.73;;;11.20;92.50;;;;;;4955751;28;20244;-70
2021/03/26 08:11:17;;;;;;;25.75;20.27;;;11.20;92.90;;;;;;4946381;28;20295;-68
2021/03/26 08:14:02;;;;;;;26.05;19.58;;;11.10;94.10;;;;;;4951247;28;20205;-68
2021/03/26 08:17:07;;;;;;;25.75;20.40;;;11.00;94.30;;;;;;4959738;28;20200;-65
2021/03/26 08:19:44;;;;;;;18.55;15.45;;;11.10;94.90;;;;;;4952011;28;20271;-65
2021/03/26 08:22:20;;;;;;;16.33;14.63;;;11.10;94.20;;;;;;4955583;28;20235;-65
2021/03/26 08:24:59;;;;;;;18.40;15.63;;;11.20;94.10;;;;;;4954786;28;20228;-65
2021/03/26 08:27:34;;;;;;;22.15;17.75;;;11.40;94.00;;;;;;4935534;28;20260;-65
2021/03/26 08:30:30;;;;;;;19.50;16.15;;;11.60;93.30;;;;;;4946175;28;20196;-66
2021/03/26 08:33:14;;;;;;;21.33;17.25;;;11.70;93.40;;;;;;4940961;28;20207;-66
2021/03/26 08:36:25;;;;;;;20.75;17.35;;;11.70;93.00;;;;;;4959177;28;20212;-64
2021/03/26 08:39:17;;;;;;;19.40;17.33;;;11.40;93.40;;;;;;4922057;28;20323;-66
2021/03/26 08:41:51;;;;;;;18.10;12.82;;;11.60;93.40;;;;;;4960260;28;20308;-66
2021/03/26 08:44:20;;;;;;;18.73;14.93;;;11.80;93.10;;;;;;4958207;28;20228;-67
2021/03/26 08:46:51;;;;;;;16.95;13.63;;;12.00;92.60;;;;;;4950376;28;20210;-66
2021/03/26 08:49:35;;;;;;;16.13;14.43;;;12.00;92.40;;;;;;4947235;29;20296;-65
2021/03/26 08:52:18;;;;;;;20.58;14.93;;;12.10;92.50;;;;;;4951460;28;20240;-66
2021/03/26 08:55:06;;;;;;;22.02;16.20;;;12.20;92.20;;;;;;4956483;28;20216;-66
2021/03/26 08:57:42;;;;;;;19.40;17.40;;;12.30;92.30;;;;;;4956086;28;20760;-67
2021/03/26 09:00:32;;;;;;;18.67;16.13;;;12.10;92.40;;;;;;4949807;28;20384;-67
2021/03/26 09:03:16;;;;;;;18.85;16.75;;;12.20;93.10;;;;;;4945818;28;20303;-66
2021/03/26 09:06:11;;;;;;;20.45;16.55;;;12.40;92.30;;;;;;4954194;28;20197;-65
2021/03/26 09:08:50;;;;;;;18.63;14.45;;;12.40;92.00;;;;;;4937076;28;20715;-66
2021/03/26 09:11:36;;;;;;;20.52;16.80;;;12.40;92.40;;;;;;4941522;28;20291;-67
2021/03/26 09:14:18;;;;;;;19.13;14.95;;;12.50;92.10;;;;;;4941057;28;20205;-68
2021/03/26 09:16:52;;;;;;;17.05;13.20;;;12.70;92.00;;;;;;4955459;28;20220;-68
2021/03/26 09:19:24;;;;;;;19.33;15.30;;;13.00;91.10;;;;;;4958298;28;20204;-67
2021/03/26 09:21:59;;;;;;;20.00;17.08;;;12.90;91.20;;;;;;4940788;28;20265;-68
2021/03/26 09:25:05;;;;;;;19.65;17.55;;;13.10;91.20;;;;;;4945738;28;20791;-68
2021/03/26 09:27:37;;;;;;;21.30;17.88;;;13.40;91.00;;;;;;4954087;28;20227;-68
2021/03/26 09:30:11;;;;;;;18.88;16.83;;;13.70;91.50;;;;;;4945448;28;20725;-70
2021/03/26 09:32:46;;;;;;;20.45;15.23;;;14.10;91.30;;;;;;4953435;28;20312;-70
2021/03/26 09:35:17;;;;;;;17.50;15.70;;;14.80;90.10;;;;;;4951618;28;20209;-68
2021/03/26 09:37:47;;;;;;;16.58;14.88;;;16.10;84.80;;;;;;4945641;28;20313;-67
2021/03/26 09:40:34;;;;;;;16.27;14.55;;;17.20;82.10;;;;;;4949040;28;20239;-68
2021/03/26 09:43:22;;;;;;;18.73;16.40;;;17.70;78.10;;;;;;4945816;28;20951;-69
2021/03/26 09:46:00;;;;;;;16.93;14.97;;;19.20;74.70;;;;;;4954776;28;20216;-68
2021/03/26 09:48:49;;;;;;;16.47;14.40;;;19.30;74.70;;;;;;4958548;28;20631;-67
2021/03/26 09:51:25;;;;;;;15.83;14.13;;;18.90;75.30;;;;;;4949659;28;20640;-69
2021/03/26 09:53:53;;;;;;;22.13;15.77;;;19.30;74.50;;;;;;4957273;28;20774;-69
2021/03/26 09:56:35;;;;;;;19.80;14.60;;;19.80;70.20;;;;;;4952518;28;20633;-68
2021/03/26 09:59:11;;;;;;;15.90;14.23;;;21.30;65.50;;;;;;4954473;28;20639;-67
2021/03/26 10:01:42;;;;;;;15.20;13.70;;;20.70;68.20;;;;;;4955907;28;20637;-68
2021/03/26 10:04:12;;;;;;;18.93;14.80;;;19.80;71.10;;;;;;4953987;28;20632;-69
2021/03/26 10:06:50;;;;;;;16.93;14.73;;;19.50;71.90;;;;;;4956324;28;20694;-68
2021/03/26 10:09:23;;;;;;;15.67;14.00;;;19.20;71.80;;;;;;4952495;28;20643;-69
2021/03/26 10:11:59;;;;;;;16.20;14.50;;;18.90;71.50;;;;;;4957100;28;20628;-70
2021/03/26 10:14:30;;;;;;;15.90;13.53;;;19.10;70.30;;;;;;4949558;28;20680;-69
2021/03/26 10:17:23;;;;;;;15.47;13.97;;;19.00;72.60;;;;;;4962858;28;20638;-68
2021/03/26 10:19:54;;;;;;;15.97;14.27;;;19.00;70.00;;;;;;4960107;28;20671;-68
2021/03/26 10:22:25;;;;;;;15.50;13.90;;;19.40;70.40;;;;;;4956018;28;20715;-68
2021/03/26 10:24:56;;;;;;;14.77;13.30;;;19.40;69.60;;;;;;4964331;28;20644;-68
2021/03/26 10:27:29;;;;;;;14.50;12.97;;;19.50;69.90;;;;;;4957833;28;20633;-68
2021/03/26 10:30:03;;;;;;;15.50;11.80;;;19.40;70.30;;;;;;4958585;28;20702;-68
2021/03/26 10:32:33;;;;;;;13.50;11.83;;;19.20;70.00;;;;;;4962022;28;20923;-70
2021/03/26 10:35:10;;;;;;;15.00;12.10;;;19.10;68.70;;;;;;4959210;28;20792;-68
2021/03/26 10:37:44;;;;;;;14.43;12.93;;;19.10;68.50;;;;;;4954848;28;20637;-69
2021/03/26 10:40:22;;;;;;;16.07;12.50;;;19.00;69.80;;;;;;4952100;28;20647;-68
2021/03/26 10:43:04;;;;;;;14.07;12.40;;;18.90;69.30;;;;;;4951556;28;20632;-69
2021/03/26 10:45:42;;;;;;;13.33;11.87;;;19.10;68.30;;;;;;4959774;28;20669;-67
2021/03/26 10:48:11;;;;;;;14.03;11.27;;;19.10;69.30;;;;;;4949219;28;21218;-68
2021/03/26 10:51:07;;;;;;;12.50;10.37;;;19.30;66.90;;;;;;4957070;28;20650;-68
2021/03/26 10:53:39;;;;;;;12.50;11.10;;;19.50;66.30;;;;;;4957167;28;21084;-68
2021/03/26 10:56:13;;;;;;;14.37;12.80;;;19.40;67.20;;;;;;4951658;28;21263;-68
2021/03/26 10:58:42;;;;;;;13.23;11.50;;;19.20;68.70;;;;;;4954013;28;20649;-68
2021/03/26 11:01:12;;;;;;;11.70;10.50;;;18.80;70.00;;;;;;4954838;28;21559;-68
2021/03/26 11:03:44;;;;;;;12.10;9.83;;;19.10;66.40;;;;;;4948008;28;20637;-67
2021/03/26 11:06:18;;;;;;;12.07;10.63;;;19.10;70.40;;;;;;4957467;28;21025;-70
2021/03/26 11:08:51;;;;;;;13.93;10.97;;;19.10;69.50;;;;;;4944098;28;20647;-68
2021/03/26 11:11:29;;;;;;;12.97;11.67;;;18.90;70.80;;;;;;4954297;28;20666;-68
2021/03/26 11:14:36;;;;;;;13.57;11.80;;;18.70;70.90;;;;;;4962306;28;20782;-67
2021/03/26 11:17:16;;;;;;;14.88;11.98;;;18.40;70.30;;;;;;4909878;29;20724;-67
2021/03/26 11:19:54;;;;;;;13.75;11.75;;;17.80;70.20;;;;;;4916804;29;20309;-67
2021/03/26 11:22:26;;;;;;;13.75;10.98;;;17.60;72.80;;;;;;4937194;28;20202;-68
2021/03/26 11:25:02;;;;;;;13.98;10.73;;;17.40;72.90;;;;;;4953740;28;20303;-70
2021/03/26 11:27:33;;;;;;;12.00;10.35;;;17.20;72.30;;;;;;4955707;28;20196;-69
2021/03/26 11:30:25;;;;;;;11.65;10.45;;;17.30;72.40;;;;;;4954180;28;20201;-69
2021/03/26 11:32:59;;;;;;;10.65;8.85;;;17.30;70.90;;;;;;4953772;28;20295;-68
2021/03/26 11:35:27;;;;;;;11.63;8.75;;;17.30;71.00;;;;;;4952546;28;20237;-67
2021/03/26 11:37:57;;;;;;;8.90;7.65;;;17.60;71.20;;;;;;4952020;28;20202;-69
2021/03/26 11:40:30;;;;;;;7.10;6.50;;;18.00;68.20;;;;;;4946371;28;20209;-69
2021/03/26 11:43:07;;;;;;;6.00;5.30;;;18.20;64.00;;;;;;4958359;28;20670;-67
2021/03/26 11:45:41;;;;;;;6.30;5.70;;;17.70;65.70;;;;;;4953103;28;20315;-69
2021/03/26 11:48:17;;;;;;;5.07;4.57;;;17.50;65.60;;;;;;4956126;28;20210;-68
2021/03/26 11:50:53;;;;;;;5.85;5.32;;;17.80;65.70;;;;;;4961169;28;20299;-67
2021/03/26 11:53:31;;;;;;;5.68;5.28;;;18.00;65.50;;;;;;4946406;28;20349;-68
2021/03/26 11:56:21;;;;;;;5.50;4.93;;;18.00;64.90;;;;;;4951446;28;20862;-69
2021/03/26 11:59:40;;;;;;;5.05;4.65;;;18.10;65.10;;;;;;4956957;28;20235;-68
2021/03/26 12:02:32;;;;;;;6.20;5.60;;;18.30;66.10;;;;;;4956155;28;20208;-68
2021/03/26 12:05:08;;;;;;;7.28;5.72;;;18.50;64.40;;;;;;4942702;28;20197;-68
2021/03/26 12:07:38;;;;;;;6.00;5.25;;;18.20;63.30;;;;;;4951532;28;20215;-68
2021/03/26 12:10:15;;;;;;;8.18;5.40;;;18.10;63.80;;;;;;4954844;28;20335;-67
2021/03/26 12:12:48;;;;;;;5.68;5.18;;;18.20;66.40;;;;;;4962253;28;20212;-69
2021/03/26 12:15:23;;;;;;;5.38;4.80;;;18.30;64.40;;;;;;4953503;28;20223;-70
2021/03/26 12:18:02;;;;;;;5.95;5.35;;;18.30;64.10;;;;;;4953514;28;20207;-68
2021/03/26 12:20:31;;;;;;;7.50;6.50;;;18.50;65.40;;;;;;4950028;28;20197;-67
2021/03/26 12:23:20;;;;;;;7.75;6.68;;;18.40;64.30;;;;;;4952324;28;20965;-69
2021/03/26 12:25:56;;;;;;;7.40;6.40;;;18.30;64.80;;;;;;4947015;28;20671;-67
2021/03/26 12:28:39;;;;;;;10.15;7.78;;;18.10;65.50;;;;;;4949853;28;20211;-68
2021/03/26 12:31:14;;;;;;;7.53;6.65;;;18.00;66.40;;;;;;4951557;28;20200;-70
2021/03/26 12:33:44;;;;;;;7.72;6.72;;;18.10;66.00;;;;;;4956487;28;20212;-68
2021/03/26 12:36:14;;;;;;;8.13;7.32;;;18.30;66.60;;;;;;4949246;28;20208;-67
2021/03/26 12:38:49;;;;;;;9.20;8.20;;;18.30;64.30;;;;;;4957081;28;20209;-71
2021/03/26 12:41:28;;;;;;;11.75;8.00;;;18.30;64.30;;;;;;4944809;28;20861;-72
2021/03/26 12:44:04;;;;;;;6.90;6.20;;;18.00;65.10;;;;;;4955034;28;20626;-73
2021/03/26 12:47:06;;;;;;;7.28;6.57;;;18.00;66.60;;;;;;4941697;28;20655;-72
2021/03/26 12:49:36;;;;;;;7.70;6.97;;;18.10;64.90;;;;;;4944497;28;20200;-72
2021/03/26 12:52:07;;;;;;;7.70;6.90;;;18.00;64.60;;;;;;4956150;28;20567;-73
2021/03/26 12:54:40;;;;;;;8.32;7.53;;;18.10;66.60;;;;;;4949768;28;20229;-69
2021/03/26 12:57:13;;;;;;;7.30;6.50;;;18.30;64.30;;;;;;4949851;28;20201;-69
2021/03/26 12:59:46;;;;;;;7.30;6.60;;;18.40;63.40;;;;;;4951969;28;20217;-69
2021/03/26 13:02:23;;;;;;;8.45;6.15;;;18.50;64.60;;;;;;4944246;28;20207;-68
2021/03/26 13:04:57;;;;;;;7.43;6.70;;;18.60;64.90;;;;;;4953236;28;20259;-67
2021/03/26 13:07:42;;;;;;;6.78;6.18;;;18.90;63.60;;;;;;4950937;28;20205;-69
2021/03/26 13:10:32;;;;;;;7.70;6.10;;;19.00;62.90;;;;;;4951633;28;20677;-68
2021/03/26 13:13:09;;;;;;;8.48;5.72;;;19.30;63.90;;;;;;4951237;28;20205;-68
2021/03/26 13:15:38;;;;;;;7.27;6.13;;;19.40;63.20;;;;;;4947992;28;20319;-69
2021/03/26 13:18:07;;;;;;;7.15;6.45;;;19.20;61.10;;;;;;4949660;28;20628;-67
2021/03/26 13:20:50;;;;;;;6.55;5.95;;;19.10;62.00;;;;;;4957240;28;20288;-68
2021/03/26 13:23:21;;;;;;;10.13;5.80;;;19.20;62.60;;;;;;4956012;28;20205;-68